createdAt,value
2023-04-28T00:00:49.384Z,54.91
2023-04-28T00:01:39.421Z,54.97
2023-04-28T00:02:29.822Z,54.90
2023-04-28T00:03:19.922Z,54.82
2023-04-28T00:04:09.970Z,54.68
2023-04-28T00:04:59.982Z,54.79
2023-04-28T00:05:49.987Z,54.74
2023-04-28T00:06:40.009Z,54.73
2023-04-28T00:07:30.028Z,54.78
2023-04-28T00:08:20.091Z,54.80
2023-04-28T00:09:10.205Z,54.92
2023-04-28T00:10:00.271Z,54.92
2023-04-28T00:10:50.339Z,54.94
2023-04-28T00:11:40.372Z,54.97
2023-04-28T00:12:30.444Z,54.89
2023-04-28T00:13:20.519Z,54.85
2023-04-28T00:14:10.553Z,54.91
2023-04-28T00:15:00.611Z,54.94
2023-04-28T00:15:50.777Z,54.87
2023-04-28T00:16:40.915Z,54.99
2023-04-28T00:17:30.836Z,54.92
2023-04-28T00:18:21.070Z,54.96
2023-04-28T00:19:11.040Z,54.90
2023-04-28T00:20:01.106Z,54.91
2023-04-28T00:20:51.456Z,54.89
2023-04-28T00:21:41.470Z,54.89
2023-04-28T00:22:31.537Z,54.83
2023-04-28T00:23:21.620Z,54.82
2023-04-28T00:24:11.684Z,55.01
2023-04-28T00:25:01.769Z,54.83
2023-04-28T00:25:51.814Z,54.79
2023-04-28T00:26:41.834Z,54.93
2023-04-28T00:27:31.889Z,54.99
2023-04-28T00:29:13.021Z,54.85
2023-04-28T00:30:02.105Z,55.02
2023-04-28T00:30:52.152Z,54.97
2023-04-28T00:31:42.231Z,54.85
2023-04-28T00:32:32.239Z,54.96
2023-04-28T00:33:22.296Z,54.79
2023-04-28T00:34:12.366Z,54.87
2023-04-28T00:35:02.499Z,54.85
2023-04-28T00:35:52.529Z,54.81
2023-04-28T00:36:42.566Z,54.82
2023-04-28T00:37:32.584Z,54.82
2023-04-28T00:38:22.665Z,54.85
2023-04-28T00:39:12.725Z,54.97
2023-04-28T00:40:02.762Z,54.95
2023-04-28T00:40:53.699Z,54.98
2023-04-28T00:41:42.908Z,55.04
2023-04-28T00:42:32.935Z,54.73
2023-04-28T00:43:23.003Z,54.89
2023-04-28T00:44:13.349Z,54.79
2023-04-28T00:45:03.362Z,54.94
2023-04-28T00:45:53.479Z,54.99
2023-04-28T00:46:43.715Z,54.92
2023-04-28T00:47:33.812Z,54.72
2023-04-28T00:48:23.877Z,54.84
2023-04-28T00:49:14.173Z,54.85
2023-04-28T00:50:04.238Z,54.90
2023-04-28T00:50:54.319Z,54.79
2023-04-28T00:51:44.606Z,54.95
2023-04-28T00:52:34.652Z,54.83
2023-04-28T00:53:24.723Z,54.89
2023-04-28T00:54:15.356Z,54.80
2023-04-28T00:55:05.128Z,54.70
2023-04-28T00:55:55.214Z,54.80
2023-04-28T00:56:45.509Z,54.88
2023-04-28T00:57:35.578Z,54.90
2023-04-28T00:58:25.644Z,54.88
2023-04-28T00:59:15.923Z,54.87
2023-04-28T01:00:05.991Z,54.98
2023-04-28T01:00:56.130Z,54.90
2023-04-28T01:01:46.442Z,54.82
2023-04-28T01:02:36.632Z,54.86
2023-04-28T01:03:26.596Z,55.14
2023-04-28T01:04:16.813Z,54.88
2023-04-28T01:05:06.599Z,54.79
2023-04-28T01:05:56.787Z,54.87
2023-04-28T01:06:46.799Z,54.86
2023-04-28T01:07:36.817Z,54.92
2023-04-28T01:08:26.896Z,54.85
2023-04-28T01:09:16.953Z,54.88
2023-04-28T01:10:07.025Z,54.96
2023-04-28T01:10:57.070Z,54.87
2023-04-28T01:11:47.106Z,54.85
2023-04-28T01:12:37.157Z,54.89
2023-04-28T01:13:27.195Z,54.74
2023-04-28T01:14:17.682Z,54.77
2023-04-28T01:15:07.567Z,54.83
2023-04-28T01:15:57.648Z,54.82
2023-04-28T01:16:47.712Z,54.77
2023-04-28T01:17:37.788Z,54.78
2023-04-28T01:18:27.778Z,54.75
2023-04-28T01:19:17.859Z,54.50
2023-04-28T01:20:07.895Z,54.60
2023-04-28T01:20:57.975Z,54.62
2023-04-28T01:21:48.000Z,54.54
2023-04-28T01:22:38.073Z,54.71
2023-04-28T01:23:28.154Z,54.62
2023-04-28T01:24:18.738Z,54.76
2023-04-28T01:25:08.432Z,54.59
2023-04-28T01:25:58.532Z,54.60
2023-04-28T01:26:48.560Z,54.84
2023-04-28T01:27:38.623Z,54.62
2023-04-28T01:28:28.700Z,54.65
2023-04-28T01:29:18.736Z,54.77
2023-04-28T01:30:08.791Z,54.67
2023-04-28T01:30:58.877Z,54.60
2023-04-28T01:31:49.009Z,54.68
2023-04-28T01:32:38.974Z,54.70
2023-04-28T01:33:29.045Z,54.71
2023-04-28T01:34:19.067Z,54.74
2023-04-28T01:35:09.174Z,54.74
2023-04-28T01:35:59.208Z,54.86
2023-04-28T01:36:49.233Z,54.71
2023-04-28T01:37:39.306Z,54.55
2023-04-28T01:38:29.382Z,54.51
2023-04-28T01:39:19.406Z,54.76
2023-04-28T01:40:09.743Z,54.73
2023-04-28T01:40:59.805Z,54.67
2023-04-28T01:41:49.846Z,54.79
2023-04-28T01:42:39.880Z,54.80
2023-04-28T01:43:29.955Z,54.75
2023-04-28T01:44:20.026Z,54.79
2023-04-28T01:45:10.115Z,54.80
2023-04-28T01:46:00.234Z,54.86
2023-04-28T01:46:50.199Z,54.73
2023-04-28T01:47:40.305Z,54.77
2023-04-28T01:48:30.349Z,54.82
2023-04-28T01:49:20.545Z,54.78
2023-04-28T01:50:10.628Z,54.63
2023-04-28T01:51:00.692Z,54.80
2023-04-28T01:51:50.998Z,54.79
2023-04-28T01:52:41.072Z,54.75
2023-04-28T01:53:31.156Z,54.63
2023-04-28T01:54:21.453Z,54.57
2023-04-28T01:55:11.525Z,54.79
2023-04-28T01:56:01.623Z,54.64
2023-04-28T01:56:51.675Z,54.68
2023-04-28T01:57:41.701Z,54.77
2023-04-28T01:58:31.792Z,54.69
2023-04-28T01:59:21.851Z,54.66
2023-04-28T02:00:11.918Z,54.70
2023-04-28T02:01:01.970Z,54.71
2023-04-28T02:01:52.068Z,54.66
2023-04-28T02:02:42.207Z,54.74
2023-04-28T02:03:32.480Z,54.63
2023-04-28T02:04:22.592Z,54.66
2023-04-28T02:05:12.486Z,54.46
2023-04-28T02:06:02.841Z,54.40
2023-04-28T02:06:52.864Z,54.51
2023-04-28T02:07:42.905Z,54.60
2023-04-28T02:08:33.192Z,54.69
2023-04-28T02:09:23.254Z,54.66
2023-04-28T02:10:13.296Z,54.65
2023-04-28T02:11:03.635Z,54.60
2023-04-28T02:11:53.712Z,54.50
2023-04-28T02:12:43.763Z,54.71
2023-04-28T02:13:34.078Z,54.53
2023-04-28T02:14:24.145Z,54.44
2023-04-28T02:15:14.194Z,54.64
2023-04-28T02:16:04.540Z,54.62
2023-04-28T02:16:54.559Z,54.58
2023-04-28T02:17:44.636Z,54.67
2023-04-28T02:18:34.689Z,54.75
2023-04-28T02:19:24.750Z,54.67
2023-04-28T02:20:14.834Z,54.66
2023-04-28T02:21:04.906Z,54.53
2023-04-28T02:21:54.951Z,54.53
2023-04-28T02:22:44.993Z,54.76
2023-04-28T02:23:35.053Z,54.76
2023-04-28T02:24:25.117Z,54.71
2023-04-28T02:25:15.346Z,54.73
2023-04-28T02:26:05.417Z,54.64
2023-04-28T02:26:55.459Z,54.68
2023-04-28T02:27:45.485Z,54.68
2023-04-28T02:28:35.546Z,54.69
2023-04-28T02:29:25.611Z,54.60
2023-04-28T02:30:15.690Z,54.61
2023-04-28T02:31:05.828Z,54.49
2023-04-28T02:31:55.854Z,54.78
2023-04-28T02:32:46.022Z,54.61
2023-04-28T02:33:35.945Z,54.61
2023-04-28T02:34:26.144Z,54.60
2023-04-28T02:35:16.204Z,54.82
2023-04-28T02:36:06.291Z,54.68
2023-04-28T02:36:56.597Z,54.66
2023-04-28T02:37:46.653Z,54.92
2023-04-28T02:38:36.719Z,54.62
2023-04-28T02:39:27.091Z,54.57
2023-04-28T02:40:17.047Z,54.59
2023-04-28T02:41:07.136Z,54.61
2023-04-28T02:41:57.173Z,54.48
2023-04-28T02:42:47.207Z,54.56
2023-04-28T02:43:37.259Z,54.63
2023-04-28T02:44:27.275Z,54.65
2023-04-28T02:45:17.333Z,54.61
2023-04-28T02:46:07.452Z,54.84
2023-04-28T02:46:57.485Z,55.30
2023-04-28T02:47:47.593Z,54.67
2023-04-28T02:48:37.867Z,54.67
2023-04-28T02:49:27.975Z,54.55
2023-04-28T02:50:18.012Z,54.47
2023-04-28T02:51:08.317Z,54.35
2023-04-28T02:51:58.372Z,54.50
2023-04-28T02:52:49.270Z,54.47
2023-04-28T02:53:38.508Z,54.43
2023-04-28T02:54:28.527Z,54.38
2023-04-28T02:55:18.592Z,54.47
2023-04-28T02:56:08.628Z,54.47
2023-04-28T02:56:58.661Z,54.70
2023-04-28T02:57:48.731Z,54.50
2023-04-28T02:58:38.817Z,54.49
2023-04-28T02:59:28.872Z,54.51
2023-04-28T03:00:19.180Z,54.43
2023-04-28T03:01:09.369Z,54.53
2023-04-28T03:01:59.318Z,54.48
2023-04-28T03:02:49.450Z,54.57
2023-04-28T03:03:39.528Z,54.44
2023-04-28T03:04:29.614Z,54.39
2023-04-28T03:05:19.549Z,54.32
2023-04-28T03:06:09.577Z,54.38
2023-04-28T03:06:59.792Z,54.57
2023-04-28T03:07:49.821Z,54.55
2023-04-28T03:08:39.874Z,54.54
2023-04-28T03:09:29.912Z,54.46
2023-04-28T03:10:19.984Z,54.56
2023-04-28T03:11:10.061Z,54.59
2023-04-28T03:12:00.122Z,54.54
2023-04-28T03:12:50.118Z,54.43
2023-04-28T03:13:40.191Z,54.62
2023-04-28T03:14:30.209Z,54.69
2023-04-28T03:15:20.280Z,54.35
2023-04-28T03:16:10.611Z,54.41
2023-04-28T03:17:00.609Z,54.22
2023-04-28T03:17:50.752Z,54.47
2023-04-28T03:18:40.775Z,54.55
2023-04-28T03:19:30.809Z,54.46
2023-04-28T03:20:20.879Z,54.49
2023-04-28T03:21:10.951Z,54.70
2023-04-28T03:22:00.990Z,54.47
2023-04-28T03:22:51.034Z,54.58
2023-04-28T03:23:41.141Z,54.57
2023-04-28T03:24:31.178Z,54.67
2023-04-28T03:25:21.468Z,54.73
2023-04-28T03:26:11.502Z,54.55
2023-04-28T03:27:01.539Z,54.67
2023-04-28T03:27:51.612Z,54.70
2023-04-28T03:28:41.679Z,54.69
2023-04-28T03:29:31.706Z,54.75
2023-04-28T03:30:21.797Z,54.75
2023-04-28T03:31:11.842Z,54.73
2023-04-28T03:32:01.900Z,54.84
2023-04-28T03:32:51.994Z,54.91
2023-04-28T03:33:42.002Z,55.03
2023-04-28T03:34:32.284Z,54.81
2023-04-28T03:35:22.391Z,54.83
2023-04-28T03:36:12.419Z,54.95
2023-04-28T03:37:02.496Z,54.74
2023-04-28T03:37:52.575Z,54.61
2023-04-28T03:38:42.620Z,54.71
2023-04-28T03:39:32.802Z,54.37
2023-04-28T03:40:22.748Z,54.35
2023-04-28T03:41:12.774Z,54.45
2023-04-28T03:42:02.828Z,54.45
2023-04-28T03:42:52.837Z,54.67
2023-04-28T03:43:43.178Z,54.63
2023-04-28T03:44:33.237Z,54.48
2023-04-28T03:45:23.316Z,54.57
2023-04-28T03:46:13.659Z,54.64
2023-04-28T03:47:03.669Z,54.45
2023-04-28T03:47:53.740Z,54.61
2023-04-28T03:48:43.748Z,54.67
2023-04-28T03:49:33.814Z,54.74
2023-04-28T03:50:26.042Z,54.58
2023-04-28T03:51:13.960Z,54.61
2023-04-28T03:52:04.026Z,54.84
2023-04-28T03:52:54.032Z,54.67
2023-04-28T03:53:44.110Z,54.78
2023-04-28T03:54:34.193Z,54.67
2023-04-28T03:55:24.230Z,54.64
2023-04-28T03:56:14.311Z,54.66
2023-04-28T03:57:04.345Z,54.59
2023-04-28T03:57:54.399Z,54.58
2023-04-28T03:58:44.529Z,54.57
2023-04-28T03:59:34.516Z,54.45
2023-04-28T04:00:24.653Z,54.46
2023-04-28T04:01:14.646Z,54.33
2023-04-28T04:02:04.727Z,54.46
2023-04-28T04:02:54.839Z,54.57
2023-04-28T04:03:45.025Z,54.32
2023-04-28T04:04:35.032Z,54.29
2023-04-28T04:05:25.092Z,54.40
2023-04-28T04:06:15.025Z,54.29
2023-04-28T04:07:05.067Z,54.31
2023-04-28T04:07:55.131Z,54.34
2023-04-28T04:08:45.481Z,54.41
2023-04-28T04:09:35.533Z,54.33
2023-04-28T04:10:25.620Z,54.43
2023-04-28T04:11:15.640Z,54.48
2023-04-28T04:12:05.682Z,54.53
2023-04-28T04:12:55.695Z,54.58
2023-04-28T04:13:45.777Z,54.90
2023-04-28T04:14:35.814Z,54.87
2023-04-28T04:15:26.793Z,54.71
2023-04-28T04:16:16.143Z,55.06
2023-04-28T04:17:06.005Z,54.59
2023-04-28T04:17:56.064Z,54.66
2023-04-28T04:18:46.107Z,54.54
2023-04-28T04:19:36.174Z,54.58
2023-04-28T04:20:26.252Z,54.63
2023-04-28T04:21:16.296Z,54.71
2023-04-28T04:22:06.343Z,54.69
2023-04-28T04:22:56.384Z,54.66
2023-04-28T04:23:46.454Z,54.74
2023-04-28T04:24:36.695Z,54.61
2023-04-28T04:25:26.766Z,54.56
2023-04-28T04:26:16.921Z,54.49
2023-04-28T04:27:06.851Z,54.52
2023-04-28T04:27:56.916Z,54.64
2023-04-28T04:28:46.985Z,54.54
2023-04-28T04:29:37.044Z,54.46
2023-04-28T04:30:27.120Z,54.49
2023-04-28T04:31:17.211Z,54.63
2023-04-28T04:32:07.193Z,54.58
2023-04-28T04:32:57.275Z,54.40
2023-04-28T04:33:47.558Z,54.29
2023-04-28T04:34:37.645Z,54.53
2023-04-28T04:35:27.694Z,54.52
2023-04-28T04:36:17.995Z,54.52
2023-04-28T04:37:08.033Z,54.53
2023-04-28T04:37:58.123Z,54.57
2023-04-28T04:38:48.428Z,54.33
2023-04-28T04:39:38.521Z,54.56
2023-04-28T04:40:28.564Z,54.41
2023-04-28T04:41:18.909Z,54.36
2023-04-28T04:42:23.407Z,54.46
2023-04-28T04:43:00.006Z,54.60
2023-04-28T04:43:49.081Z,54.61
2023-04-28T04:44:39.137Z,54.63
2023-04-28T04:45:29.202Z,54.95
2023-04-28T04:46:19.290Z,54.35
2023-04-28T04:47:09.358Z,54.49
2023-04-28T04:47:59.421Z,54.44
2023-04-28T04:48:49.519Z,54.44
2023-04-28T04:49:39.588Z,54.43
2023-04-28T04:50:30.297Z,55.00
2023-04-28T04:51:19.976Z,54.51
2023-04-28T04:52:10.006Z,54.39
2023-04-28T04:53:00.030Z,54.39
2023-04-28T04:53:50.111Z,54.31
2023-04-28T04:54:40.133Z,54.36
2023-04-28T04:55:30.206Z,54.76
2023-04-28T04:56:20.259Z,54.73
2023-04-28T04:57:10.280Z,54.66
2023-04-28T04:58:00.370Z,54.30
2023-04-28T04:58:50.433Z,54.48
2023-04-28T04:59:40.453Z,54.49
2023-04-28T05:00:30.782Z,54.34
2023-04-28T05:01:20.896Z,54.29
2023-04-28T05:02:11.128Z,54.41
2023-04-28T05:03:01.374Z,54.88
2023-04-28T05:03:51.412Z,54.61
2023-04-28T05:04:41.498Z,54.48
2023-04-28T05:05:31.577Z,54.52
2023-04-28T05:06:21.441Z,54.47
2023-04-28T05:07:11.512Z,54.55
2023-04-28T05:08:01.573Z,54.45
2023-04-28T05:08:51.667Z,55.08
2023-04-28T05:09:41.816Z,54.61
2023-04-28T05:10:31.880Z,54.55
2023-04-28T05:11:21.967Z,54.45
2023-04-28T05:12:12.262Z,54.43
2023-04-28T05:13:02.303Z,54.85
2023-04-28T05:13:52.347Z,55.34
2023-04-28T05:14:42.414Z,55.86
2023-04-28T05:15:32.510Z,56.32
2023-04-28T05:16:22.577Z,55.11
2023-04-28T05:17:12.583Z,54.69
2023-04-28T05:18:02.633Z,55.77
2023-04-28T05:18:52.692Z,55.88
2023-04-28T05:19:42.722Z,54.61
2023-04-28T05:20:32.749Z,54.23
2023-04-28T05:21:22.812Z,55.11
2023-04-28T05:22:12.846Z,54.72
2023-04-28T05:23:02.885Z,54.70
2023-04-28T05:23:52.961Z,54.49
2023-04-28T05:24:43.001Z,54.53
2023-04-28T05:25:33.085Z,54.47
2023-04-28T05:26:23.111Z,54.21
2023-04-28T05:27:13.188Z,54.78
2023-04-28T05:28:03.214Z,54.35
2023-04-28T05:28:53.287Z,54.32
2023-04-28T05:29:43.294Z,55.06
2023-04-28T05:30:33.377Z,55.43
2023-04-28T05:31:23.423Z,55.07
2023-04-28T05:32:13.618Z,55.57
2023-04-28T05:33:03.615Z,55.42
2023-04-28T05:33:53.600Z,55.33
2023-04-28T05:34:43.588Z,54.58
2023-04-28T05:35:33.671Z,55.28
2023-04-28T05:36:23.743Z,54.45
2023-04-28T05:37:13.772Z,55.31
2023-04-28T05:38:03.805Z,55.97
2023-04-28T05:38:53.880Z,55.57
2023-04-28T05:39:43.948Z,55.61
2023-04-28T05:40:34.021Z,55.19
2023-04-28T05:41:24.315Z,54.42
2023-04-28T05:42:14.342Z,54.15
2023-04-28T05:43:04.376Z,54.24
2023-04-28T05:43:54.459Z,54.10
2023-04-28T05:44:44.511Z,54.45
2023-04-28T05:45:34.608Z,54.78
2023-04-28T05:46:30.709Z,55.69
2023-04-28T05:47:15.686Z,55.59
2023-04-28T05:48:04.753Z,55.10
2023-04-28T05:48:54.817Z,54.33
2023-04-28T05:49:44.831Z,54.39
2023-04-28T05:50:36.519Z,55.81
2023-04-28T05:51:24.965Z,54.61
2023-04-28T05:52:15.006Z,54.63
2023-04-28T05:53:05.035Z,55.02
2023-04-28T05:53:55.071Z,55.59
2023-04-28T05:54:45.137Z,55.76
2023-04-28T05:55:35.144Z,54.78
2023-04-28T05:56:25.234Z,54.50
2023-04-28T05:57:15.337Z,54.23
2023-04-28T05:58:05.406Z,54.26
2023-04-28T05:58:55.457Z,54.07
2023-04-28T05:59:45.472Z,54.19
2023-04-28T06:00:35.569Z,54.47
2023-04-28T06:01:25.578Z,54.96
2023-04-28T06:02:15.729Z,54.45
2023-04-28T06:03:05.945Z,54.84
2023-04-28T06:03:55.903Z,54.46
2023-04-28T06:04:46.258Z,54.05
2023-04-28T06:05:36.158Z,54.21
2023-04-28T06:06:26.035Z,54.47
2023-04-28T06:07:15.988Z,54.34
2023-04-28T06:08:06.011Z,54.48
2023-04-28T06:08:56.095Z,54.45
2023-04-28T06:09:46.183Z,55.44
2023-04-28T06:10:36.266Z,55.81
2023-04-28T06:11:26.295Z,54.58
2023-04-28T06:12:16.396Z,54.51
2023-04-28T06:13:06.433Z,55.57
2023-04-28T06:13:56.507Z,54.69
2023-04-28T06:14:46.524Z,54.46
2023-04-28T06:15:36.657Z,54.24
2023-04-28T06:16:26.794Z,53.93
2023-04-28T06:17:16.762Z,54.65
2023-04-28T06:18:06.832Z,54.51
2023-04-28T06:18:56.869Z,55.68
2023-04-28T06:19:46.888Z,55.57
2023-04-28T06:20:36.939Z,54.45
2023-04-28T06:21:26.964Z,54.66
2023-04-28T06:22:17.062Z,54.24
2023-04-28T06:23:07.080Z,54.49
2023-04-28T06:23:57.205Z,54.63
2023-04-28T06:24:47.236Z,54.81
2023-04-28T06:25:37.285Z,54.14
2023-04-28T06:26:27.358Z,54.30
2023-04-28T06:27:17.486Z,54.57
2023-04-28T06:28:07.481Z,54.41
2023-04-28T06:28:57.555Z,54.28
2023-04-28T06:29:47.579Z,55.12
2023-04-28T06:30:37.690Z,55.43
2023-04-28T06:31:27.728Z,55.55
2023-04-28T06:32:17.783Z,55.67
2023-04-28T06:33:07.902Z,55.45
2023-04-28T06:33:57.855Z,55.12
2023-04-28T06:34:47.886Z,54.65
2023-04-28T06:35:37.963Z,55.64
2023-04-28T06:36:27.997Z,55.45
2023-04-28T06:37:18.175Z,55.06
2023-04-28T06:38:08.190Z,55.46
2023-04-28T06:38:58.264Z,55.54
2023-04-28T06:39:48.305Z,55.34
2023-04-28T06:40:38.405Z,55.04
2023-04-28T06:41:28.423Z,55.62
2023-04-28T06:42:18.529Z,55.57
2023-04-28T06:43:08.553Z,54.85
2023-04-28T06:43:58.623Z,54.55
2023-04-28T06:44:48.719Z,54.14
2023-04-28T06:45:38.751Z,54.55
2023-04-28T06:46:28.811Z,53.92
2023-04-28T06:47:18.874Z,54.20
2023-04-28T06:48:08.987Z,53.72
2023-04-28T06:48:58.974Z,53.93
2023-04-28T06:49:49.024Z,54.73
2023-04-28T06:50:39.392Z,54.99
2023-04-28T06:51:29.277Z,55.55
2023-04-28T06:52:22.777Z,55.29
2023-04-28T06:53:10.396Z,55.53
2023-04-28T06:53:59.424Z,55.74
2023-04-28T06:54:49.496Z,54.92
2023-04-28T06:55:39.540Z,55.13
2023-04-28T06:56:29.612Z,55.55
2023-04-28T06:57:19.696Z,54.81
2023-04-28T06:58:09.725Z,55.02
2023-04-28T06:58:59.898Z,55.47
2023-04-28T06:59:49.921Z,55.37
2023-04-28T07:00:40.009Z,55.23
2023-04-28T07:01:30.095Z,55.54
2023-04-28T07:02:20.178Z,55.32
2023-04-28T07:03:10.285Z,54.98
2023-04-28T07:04:00.409Z,54.68
2023-04-28T07:04:50.230Z,55.26
2023-04-28T07:05:40.563Z,55.62
2023-04-28T07:06:30.392Z,54.40
2023-04-28T07:07:20.468Z,53.99
2023-04-28T07:08:10.508Z,54.33
2023-04-28T07:09:00.573Z,54.23
2023-04-28T07:09:50.619Z,54.34
2023-04-28T07:10:40.631Z,54.07
2023-04-28T07:11:30.681Z,55.36
2023-04-28T07:12:20.784Z,54.29
2023-04-28T07:13:10.835Z,54.54
2023-04-28T07:14:00.882Z,54.95
2023-04-28T07:14:50.962Z,54.06
2023-04-28T07:15:41.031Z,54.46
2023-04-28T07:16:31.108Z,54.14
2023-04-28T07:17:21.134Z,53.98
2023-04-28T07:18:11.186Z,54.20
2023-04-28T07:19:01.260Z,55.06
2023-04-28T07:19:51.318Z,53.96
2023-04-28T07:20:41.572Z,53.78
2023-04-28T07:21:31.660Z,54.14
2023-04-28T07:22:21.757Z,54.38
2023-04-28T07:23:11.778Z,53.95
2023-04-28T07:24:02.107Z,53.96
2023-04-28T07:24:52.176Z,54.83
2023-04-28T07:25:42.256Z,54.99
2023-04-28T07:26:32.283Z,54.77
2023-04-28T07:27:22.377Z,54.12
2023-04-28T07:28:12.408Z,53.86
2023-04-28T07:29:02.509Z,53.79
2023-04-28T07:29:52.557Z,54.40
2023-04-28T07:30:42.638Z,53.49
2023-04-28T07:31:32.722Z,53.98
2023-04-28T07:32:22.997Z,53.43
2023-04-28T07:33:13.091Z,54.28
2023-04-28T07:34:03.039Z,53.85
2023-04-28T07:34:53.115Z,54.35
2023-04-28T07:35:43.485Z,55.19
2023-04-28T07:36:33.475Z,55.30
2023-04-28T07:37:23.584Z,55.39
2023-04-28T07:38:13.613Z,54.97
2023-04-28T07:39:03.683Z,55.48
2023-04-28T07:39:53.743Z,55.47
2023-04-28T07:40:43.806Z,55.37
2023-04-28T07:41:33.860Z,55.41
2023-04-28T07:42:23.943Z,55.06
2023-04-28T07:43:14.009Z,55.43
2023-04-28T07:44:04.015Z,55.45
2023-04-28T07:44:54.289Z,55.45
2023-04-28T07:45:44.330Z,55.48
2023-04-28T07:46:34.412Z,55.28
2023-04-28T07:47:24.419Z,55.53
2023-04-28T07:48:14.507Z,55.55
2023-04-28T07:49:04.499Z,55.36
2023-04-28T07:49:54.576Z,55.34
2023-04-28T07:50:44.642Z,55.37
2023-04-28T07:51:34.736Z,54.88
2023-04-28T07:52:24.812Z,54.76
2023-04-28T07:53:14.843Z,55.27
2023-04-28T07:54:04.919Z,55.24
2023-04-28T07:54:54.980Z,55.07
2023-04-28T07:55:45.062Z,55.26
2023-04-28T07:56:35.075Z,55.23
2023-04-28T07:57:25.175Z,55.07
2023-04-28T07:58:15.197Z,54.77
2023-04-28T07:59:05.276Z,54.70
2023-04-28T07:59:55.319Z,54.78
2023-04-28T08:00:45.636Z,54.99
2023-04-28T08:01:35.667Z,55.11
2023-04-28T08:02:25.856Z,54.50
2023-04-28T08:03:16.136Z,54.00
2023-04-28T08:04:06.102Z,54.74
2023-04-28T08:04:56.116Z,54.97
2023-04-28T08:05:46.114Z,54.75
2023-04-28T08:06:36.165Z,54.64
2023-04-28T08:07:26.276Z,54.09
2023-04-28T08:08:16.275Z,54.06
2023-04-28T08:09:06.351Z,54.20
2023-04-28T08:09:56.409Z,55.04
2023-04-28T08:10:46.487Z,54.52
2023-04-28T08:11:36.532Z,54.26
2023-04-28T08:12:26.612Z,54.01
2023-04-28T08:13:16.667Z,53.01
2023-04-28T08:14:06.718Z,53.36
2023-04-28T08:14:56.760Z,53.20
2023-04-28T08:15:46.840Z,54.53
2023-04-28T08:16:36.852Z,54.60
2023-04-28T08:17:26.981Z,53.67
2023-04-28T08:18:17.015Z,54.50
2023-04-28T08:19:07.065Z,54.72
2023-04-28T08:19:57.085Z,55.00
2023-04-28T08:20:47.150Z,54.38
2023-04-28T08:21:37.221Z,54.39
2023-04-28T08:22:27.316Z,54.71
2023-04-28T08:23:17.375Z,54.99
2023-04-28T08:24:07.421Z,55.01
2023-04-28T08:24:57.470Z,53.81
2023-04-28T08:25:47.523Z,53.90
2023-04-28T08:26:37.586Z,54.16
2023-04-28T08:27:27.931Z,54.70
2023-04-28T08:28:17.974Z,54.49
2023-04-28T08:29:08.032Z,53.46
2023-04-28T08:29:58.071Z,53.97
2023-04-28T08:30:48.154Z,54.84
2023-04-28T08:31:38.208Z,55.06
2023-04-28T08:32:28.298Z,54.46
2023-04-28T08:33:18.388Z,54.57
2023-04-28T08:34:08.371Z,54.42
2023-04-28T08:34:58.431Z,53.04
2023-04-28T08:35:48.509Z,53.16
2023-04-28T08:36:38.793Z,54.61
2023-04-28T08:37:28.896Z,54.66
2023-04-28T08:38:19.069Z,54.55
2023-04-28T08:39:09.541Z,53.90
2023-04-28T08:39:59.293Z,53.82
2023-04-28T08:40:49.336Z,53.22
2023-04-28T08:41:39.393Z,52.91
2023-04-28T08:42:29.500Z,53.53
2023-04-28T08:43:19.526Z,52.89
2023-04-28T08:44:09.611Z,53.09
2023-04-28T08:44:59.684Z,54.35
2023-04-28T08:45:49.742Z,54.49
2023-04-28T08:46:39.870Z,54.81
2023-04-28T08:47:29.949Z,53.57
2023-04-28T08:48:19.934Z,53.50
2023-04-28T08:49:10.269Z,53.17
2023-04-28T08:50:00.298Z,53.96
2023-04-28T08:50:50.422Z,54.32
2023-04-28T08:51:42.194Z,54.58
2023-04-28T08:52:30.493Z,54.86
2023-04-28T08:53:20.516Z,55.07
2023-04-28T08:54:25.455Z,54.48
2023-04-28T08:55:01.684Z,54.61
2023-04-28T08:55:50.734Z,54.96
2023-04-28T08:56:40.813Z,54.49
2023-04-28T08:57:30.892Z,55.06
2023-04-28T08:58:20.923Z,54.11
2023-04-28T08:59:11.001Z,54.38
2023-04-28T09:00:01.056Z,54.55
2023-04-28T09:00:51.187Z,54.88
2023-04-28T09:01:41.251Z,53.78
2023-04-28T09:02:31.426Z,53.76
2023-04-28T09:03:21.458Z,54.59
2023-04-28T09:04:14.200Z,54.21
2023-04-28T09:05:01.854Z,54.45
2023-04-28T09:05:51.556Z,53.88
2023-04-28T09:06:41.610Z,54.65
2023-04-28T09:07:31.743Z,54.61
2023-04-28T09:08:21.881Z,53.21
2023-04-28T09:09:11.964Z,54.13
2023-04-28T09:10:02.016Z,53.78
2023-04-28T09:10:52.540Z,54.30
2023-04-28T09:11:42.389Z,54.52
2023-04-28T09:12:32.488Z,53.90
2023-04-28T09:13:22.512Z,54.44
2023-04-28T09:14:12.559Z,54.62
2023-04-28T09:15:02.602Z,55.19
2023-04-28T09:15:52.677Z,55.24
2023-04-28T09:16:42.820Z,55.16
2023-04-28T09:17:32.782Z,54.83
2023-04-28T09:18:22.804Z,54.46
2023-04-28T09:19:12.880Z,54.78
2023-04-28T09:20:03.209Z,54.59
2023-04-28T09:20:53.285Z,54.72
2023-04-28T09:21:43.320Z,54.06
2023-04-28T09:22:33.740Z,54.88
2023-04-28T09:23:23.701Z,55.12
2023-04-28T09:24:13.927Z,54.99
2023-04-28T09:25:04.110Z,54.41
2023-04-28T09:25:54.175Z,54.80
2023-04-28T09:26:44.256Z,54.85
2023-04-28T09:27:34.343Z,54.45
2023-04-28T09:28:24.368Z,54.31
2023-04-28T09:29:14.484Z,55.12
2023-04-28T09:30:06.426Z,54.48
2023-04-28T09:30:54.532Z,55.03
2023-04-28T09:31:44.566Z,55.24
2023-04-28T09:32:34.671Z,54.81
2023-04-28T09:33:24.712Z,55.17
2023-04-28T09:34:14.867Z,55.38
2023-04-28T09:35:04.826Z,55.41
2023-04-28T09:35:54.888Z,55.42
2023-04-28T09:36:44.919Z,54.78
2023-04-28T09:37:35.023Z,54.79
2023-04-28T09:38:25.087Z,54.70
2023-04-28T09:39:15.166Z,54.80
2023-04-28T09:40:05.178Z,55.23
2023-04-28T09:40:55.247Z,54.92
2023-04-28T09:41:45.359Z,55.37
2023-04-28T09:42:35.529Z,55.32
2023-04-28T09:43:25.453Z,55.06
2023-04-28T09:44:16.170Z,54.73
2023-04-28T09:45:05.791Z,54.71
2023-04-28T09:45:55.916Z,54.89
2023-04-28T09:46:45.911Z,54.57
2023-04-28T09:47:36.102Z,55.12
2023-04-28T09:48:26.017Z,54.54
2023-04-28T09:49:16.107Z,54.94
2023-04-28T09:50:06.283Z,54.50
2023-04-28T09:50:56.217Z,55.20
2023-04-28T09:51:46.260Z,55.29
2023-04-28T09:52:36.348Z,55.24
2023-04-28T09:53:26.360Z,55.32
2023-04-28T09:54:16.437Z,55.19
2023-04-28T09:55:06.524Z,54.62
2023-04-28T09:55:56.585Z,54.93
2023-04-28T09:56:46.618Z,54.62
2023-04-28T09:57:36.738Z,54.77
2023-04-28T09:58:26.755Z,55.07
2023-04-28T09:59:16.809Z,54.67
2023-04-28T10:00:07.166Z,55.04
2023-04-28T10:00:57.200Z,55.42
2023-04-28T10:01:47.229Z,55.33
2023-04-28T10:03:29.322Z,55.36
2023-04-28T10:04:17.431Z,55.06
2023-04-28T10:05:07.500Z,55.28
2023-04-28T10:05:57.379Z,55.27
2023-04-28T10:06:47.445Z,55.23
2023-04-28T10:07:37.553Z,55.07
2023-04-28T10:08:27.689Z,55.44
2023-04-28T10:09:17.629Z,55.22
2023-04-28T10:10:07.776Z,55.06
2023-04-28T10:10:57.782Z,55.09
2023-04-28T10:11:47.816Z,54.97
2023-04-28T10:12:37.888Z,55.32
2023-04-28T10:13:27.932Z,54.83
2023-04-28T10:14:18.102Z,54.68
2023-04-28T10:15:08.027Z,55.06
2023-04-28T10:15:58.360Z,54.86
2023-04-28T10:16:48.876Z,55.01
2023-04-28T10:17:38.254Z,55.31
2023-04-28T10:18:28.280Z,55.18
2023-04-28T10:19:18.324Z,55.21
2023-04-28T10:20:08.352Z,55.28
2023-04-28T10:20:58.402Z,55.53
2023-04-28T10:21:49.424Z,54.93
2023-04-28T10:22:38.508Z,55.13
2023-04-28T10:23:28.514Z,55.18
2023-04-28T10:24:18.592Z,54.76
2023-04-28T10:25:08.628Z,54.78
2023-04-28T10:25:58.700Z,55.30
2023-04-28T10:26:48.724Z,54.77
2023-04-28T10:27:39.041Z,55.31
2023-04-28T10:28:29.066Z,55.50
2023-04-28T10:29:19.148Z,55.21
2023-04-28T10:30:22.782Z,55.42
2023-04-28T10:31:00.279Z,55.58
2023-04-28T10:31:49.343Z,55.50
2023-04-28T10:32:39.478Z,55.42
2023-04-28T10:33:29.811Z,55.46
2023-04-28T10:34:19.521Z,55.47
2023-04-28T10:35:09.564Z,55.14
2023-04-28T10:35:59.595Z,55.08
2023-04-28T10:36:49.655Z,55.05
2023-04-28T10:37:39.746Z,55.29
2023-04-28T10:38:29.781Z,55.29
2023-04-28T10:39:20.115Z,54.94
2023-04-28T10:40:10.199Z,54.95
2023-04-28T10:41:00.209Z,54.43
2023-04-28T10:41:50.255Z,54.70
2023-04-28T10:42:40.294Z,54.95
2023-04-28T10:43:30.598Z,55.04
2023-04-28T10:44:20.368Z,55.28
2023-04-28T10:45:10.435Z,55.23
2023-04-28T10:46:00.560Z,55.60
2023-04-28T10:46:50.605Z,55.29